Time;durP1;ratioP1;P1;durP2;ratioP2;P2;SDS_P1;SDS_P2;PMS_P1;PMS_P2;Temp;Humidity;BMP_temperature;BMP_pressure;BME280_temperature;BME280_humidity;BME280_pressure;Samples;Min_cycle;Max_cycle;Signal;HPM_P1;HPM_P2
2023/07/02 00:01:10;;;;;;;23.73;14.63;;;19.70;99.90;;;;;;5045209;28;20200;-25
2023/07/02 00:03:42;;;;;;;23.50;15.52;;;19.70;99.90;;;;;;5043482;28;20204;-25
2023/07/02 00:06:11;;;;;;;28.75;15.23;;;19.70;99.90;;;;;;5045323;28;20208;-33
2023/07/02 00:08:43;;;;;;;23.80;14.93;;;19.60;99.90;;;;;;5045052;28;20204;-33
2023/07/02 00:11:13;;;;;;;26.30;15.07;;;19.60;99.90;;;;;;5060234;28;20674;-33
2023/07/02 00:13:40;;;;;;;23.90;15.10;;;19.60;99.90;;;;;;5045261;28;20204;-33
2023/07/02 00:16:14;;;;;;;26.60;15.65;;;19.60;99.90;;;;;;5044158;28;20561;-33
2023/07/02 00:18:42;;;;;;;22.85;15.32;;;19.60;99.90;;;;;;5043680;28;20195;-33
2023/07/02 00:21:13;;;;;;;24.55;15.10;;;19.60;99.90;;;;;;5043517;28;20274;-33
2023/07/02 00:23:40;;;;;;;27.42;16.38;;;19.50;99.90;;;;;;5043169;28;20240;-33
2023/07/02 00:26:10;;;;;;;26.65;16.02;;;19.50;99.90;;;;;;5042975;28;20674;-33
2023/07/02 00:28:38;;;;;;;25.75;15.73;;;19.50;99.90;;;;;;5044533;28;20290;-33
2023/07/02 00:31:09;;;;;;;27.70;16.45;;;19.50;99.90;;;;;;5044440;28;20678;-33
2023/07/02 00:33:38;;;;;;;24.70;16.13;;;19.50;99.90;;;;;;5044910;28;20287;-33
2023/07/02 00:36:12;;;;;;;26.70;16.42;;;19.50;99.90;;;;;;5042802;28;20248;-33
2023/07/02 00:38:48;;;;;;;28.33;16.05;;;19.50;99.90;;;;;;5042899;28;20940;-33
2023/07/02 00:41:16;;;;;;;32.15;17.85;;;19.50;99.90;;;;;;5044481;28;20196;-33
2023/07/02 00:43:43;;;;;;;26.00;16.90;;;19.50;99.90;;;;;;5044617;28;20296;-33
2023/07/02 00:46:17;;;;;;;23.58;16.73;;;19.40;99.90;;;;;;5044361;28;20215;-33
2023/07/02 00:48:51;;;;;;;27.13;16.77;;;19.40;99.90;;;;;;5042671;28;20203;-33
2023/07/02 00:51:26;;;;;;;31.55;17.40;;;19.40;99.90;;;;;;5044158;28;20204;-33
2023/07/02 00:53:57;;;;;;;23.40;16.00;;;19.40;99.90;;;;;;5044512;28;20277;-33
2023/07/02 00:56:27;;;;;;;26.75;16.55;;;19.40;99.90;;;;;;5042786;28;20236;-32
2023/07/02 00:58:58;;;;;;;29.90;17.45;;;19.40;99.90;;;;;;5044608;28;20586;-33
2023/07/02 01:01:31;;;;;;;32.28;18.08;;;19.40;99.90;;;;;;5044462;28;20200;-33
2023/07/02 01:04:01;;;;;;;29.05;18.00;;;19.40;99.90;;;;;;5044463;28;20249;-25
2023/07/02 01:06:30;;;;;;;28.20;16.85;;;19.40;99.90;;;;;;5044178;28;20204;-25
2023/07/02 01:09:03;;;;;;;30.55;17.23;;;19.40;99.90;;;;;;5044485;28;20487;-25
2023/07/02 01:11:32;;;;;;;29.65;18.27;;;19.40;99.90;;;;;;5044143;28;20453;-24
2023/07/02 01:14:08;;;;;;;28.58;17.48;;;19.40;99.90;;;;;;5042812;28;20201;-25
2023/07/02 01:16:37;;;;;;;27.05;17.13;;;19.40;99.90;;;;;;5025834;28;20687;-25
2023/07/02 01:19:18;;;;;;;29.00;18.25;;;19.40;99.90;;;;;;5058865;28;20258;-24
2023/07/02 01:21:49;;;;;;;31.10;18.58;;;19.30;99.90;;;;;;5044305;28;20200;-26
2023/07/02 01:24:21;;;;;;;30.15;18.10;;;19.40;99.90;;;;;;5044331;28;20196;-25
2023/07/02 01:26:53;;;;;;;32.22;18.80;;;19.30;99.90;;;;;;5043536;28;20299;-25
2023/07/02 01:29:22;;;;;;;30.58;19.20;;;19.30;99.90;;;;;;5046753;28;20231;-25
2023/07/02 01:31:54;;;;;;;34.35;20.13;;;19.30;99.90;;;;;;5047813;28;20204;-25
2023/07/02 01:34:24;;;;;;;33.30;20.52;;;19.30;99.90;;;;;;5047827;28;20242;-25
2023/07/02 01:36:51;;;;;;;33.63;19.88;;;19.30;99.90;;;;;;5048210;28;20588;-25
2023/07/02 01:39:18;;;;;;;35.17;20.33;;;19.30;99.90;;;;;;5046271;28;20219;-25
2023/07/02 01:41:54;;;;;;;31.40;19.40;;;19.30;99.90;;;;;;5046304;28;20287;-25
2023/07/02 01:44:22;;;;;;;32.60;19.33;;;19.30;99.90;;;;;;5048306;28;20196;-25
2023/07/02 01:46:49;;;;;;;34.88;18.60;;;19.30;99.90;;;;;;5047629;28;20678;-24
2023/07/02 01:49:20;;;;;;;32.40;18.73;;;19.30;99.90;;;;;;5046413;28;20589;-25
2023/07/02 01:51:55;;;;;;;31.77;19.98;;;19.30;99.90;;;;;;5047775;28;20277;-25
2023/07/02 01:54:26;;;;;;;32.78;20.08;;;19.30;99.90;;;;;;5047637;28;20203;-25
2023/07/02 01:56:56;;;;;;;34.92;19.55;;;19.30;99.90;;;;;;5047306;28;20207;-24
2023/07/02 01:59:24;;;;;;;36.00;21.13;;;19.30;99.90;;;;;;5045757;28;20559;-25
2023/07/02 02:01:54;;;;;;;33.80;20.67;;;19.20;99.90;;;;;;5045877;28;20208;-25
2023/07/02 02:04:26;;;;;;;34.25;20.88;;;19.20;99.90;;;;;;5061833;28;20200;-24
2023/07/02 02:06:54;;;;;;;36.05;20.25;;;19.30;99.90;;;;;;5047144;28;20204;-25
2023/07/02 02:09:23;;;;;;;30.27;19.58;;;19.20;99.90;;;;;;5047019;28;20234;-25
2023/07/02 02:11:52;;;;;;;38.05;20.98;;;19.30;99.90;;;;;;5047114;28;20208;-25
2023/07/02 02:14:19;;;;;;;38.00;21.67;;;19.20;99.90;;;;;;5047052;28;20210;-24
2023/07/02 02:16:49;;;;;;;34.72;21.23;;;19.20;99.90;;;;;;5061769;28;20227;-25
2023/07/02 02:19:16;;;;;;;36.63;21.27;;;19.20;99.90;;;;;;5078768;28;20208;-25
2023/07/02 02:21:44;;;;;;;33.03;20.48;;;19.20;99.90;;;;;;5061717;28;20192;-25
2023/07/02 02:24:13;;;;;;;34.67;20.05;;;19.20;99.90;;;;;;5046915;28;20196;-25
2023/07/02 02:26:45;;;;;;;34.08;21.25;;;19.20;99.90;;;;;;5045289;28;20246;-25
2023/07/02 02:29:15;;;;;;;34.70;21.45;;;19.20;99.90;;;;;;5047012;28;20200;-25
2023/07/02 02:31:45;;;;;;;34.67;21.15;;;19.20;99.90;;;;;;5046836;28;20232;-24
2023/07/02 02:34:17;;;;;;;36.80;21.85;;;19.20;99.90;;;;;;5046684;28;20315;-25
2023/07/02 02:36:47;;;;;;;39.47;21.02;;;19.20;99.90;;;;;;5047049;28;20232;-25
2023/07/02 02:39:19;;;;;;;39.90;21.10;;;19.20;99.90;;;;;;5045617;28;20196;-25
2023/07/02 02:41:51;;;;;;;37.17;21.33;;;19.20;99.90;;;;;;5045305;28;20201;-24
2023/07/02 02:44:20;;;;;;;38.15;20.77;;;19.20;99.90;;;;;;5045434;28;20200;-25
2023/07/02 02:46:48;;;;;;;33.30;21.48;;;19.20;99.90;;;;;;5044953;28;20214;-24
2023/07/02 02:49:17;;;;;;;38.38;21.48;;;19.20;99.90;;;;;;5047154;28;20239;-24
2023/07/02 02:51:48;;;;;;;38.83;21.95;;;19.20;99.90;;;;;;5046431;28;20202;-33
2023/07/02 02:54:15;;;;;;;43.33;23.23;;;19.20;99.90;;;;;;5046629;28;20197;-33
2023/07/02 02:56:42;;;;;;;40.63;22.45;;;19.20;99.90;;;;;;5046344;28;20684;-36
2023/07/02 02:59:12;;;;;;;37.00;21.63;;;19.20;99.90;;;;;;5046224;28;21000;-33
2023/07/02 03:01:42;;;;;;;37.67;21.45;;;19.20;99.90;;;;;;5044579;28;20219;-33
2023/07/02 03:04:11;;;;;;;36.97;21.27;;;19.10;99.90;;;;;;5046175;28;20196;-33
2023/07/02 03:06:41;;;;;;;38.13;22.50;;;19.10;99.90;;;;;;5046173;28;20792;-33
2023/07/02 03:09:09;;;;;;;39.10;22.42;;;19.10;99.90;;;;;;5060919;28;20211;-33
2023/07/02 03:11:36;;;;;;;42.15;22.20;;;19.10;99.90;;;;;;5044585;28;20204;-33
2023/07/02 03:14:08;;;;;;;40.60;22.08;;;19.10;99.90;;;;;;5044601;28;20210;-33
2023/07/02 03:16:35;;;;;;;36.47;22.13;;;19.10;99.90;;;;;;5045805;28;20597;-33
2023/07/02 03:19:02;;;;;;;37.17;21.63;;;19.10;99.90;;;;;;5044645;28;20200;-33
2023/07/02 03:21:29;;;;;;;40.75;23.52;;;19.10;99.90;;;;;;5046065;28;20215;-33
2023/07/02 03:23:59;;;;;;;41.53;22.85;;;19.00;99.90;;;;;;5044548;28;20294;-33
2023/07/02 03:26:26;;;;;;;40.50;22.75;;;19.00;99.90;;;;;;5045757;28;20208;-33
2023/07/02 03:28:54;;;;;;;37.10;22.25;;;19.00;99.90;;;;;;5045897;28;20207;-33
2023/07/02 03:31:24;;;;;;;40.55;22.05;;;19.00;99.90;;;;;;5044460;28;20690;-33
2023/07/02 03:33:53;;;;;;;39.13;23.55;;;19.00;99.90;;;;;;5044244;28;20204;-33
2023/07/02 03:36:21;;;;;;;43.45;23.60;;;19.00;99.90;;;;;;5045533;28;20232;-33
2023/07/02 03:38:55;;;;;;;43.80;22.55;;;19.00;99.90;;;;;;5044119;28;20220;-33
2023/07/02 03:41:24;;;;;;;40.63;22.27;;;19.00;99.90;;;;;;5044020;28;20207;-33
2023/07/02 03:43:56;;;;;;;38.30;22.27;;;19.00;99.90;;;;;;5045332;28;20211;-33
2023/07/02 03:46:24;;;;;;;39.88;23.00;;;19.00;99.90;;;;;;5045392;28;20208;-33
2023/07/02 03:48:53;;;;;;;42.05;23.42;;;19.00;99.90;;;;;;5045353;28;20277;-33
2023/07/02 03:51:20;;;;;;;40.17;23.63;;;18.90;99.90;;;;;;5045117;28;20218;-33
2023/07/02 03:53:49;;;;;;;41.60;23.65;;;18.90;99.90;;;;;;5043467;28;20204;-36
2023/07/02 03:56:17;;;;;;;43.47;23.58;;;18.90;99.90;;;;;;5045107;28;20247;-33
2023/07/02 03:58:44;;;;;;;40.03;22.92;;;18.90;99.90;;;;;;5044864;28;20204;-33
2023/07/02 04:01:11;;;;;;;40.45;23.60;;;18.90;99.90;;;;;;5045081;28;20215;-33
2023/07/02 04:03:51;;;;;;;39.88;23.10;;;18.90;99.90;;;;;;5044050;28;20201;-33
2023/07/02 04:06:20;;;;;;;45.15;24.58;;;18.90;99.90;;;;;;5044949;28;20784;-33
2023/07/02 04:08:51;;;;;;;40.13;24.00;;;18.90;99.90;;;;;;5044884;28;20295;-33
2023/07/02 04:11:18;;;;;;;43.58;23.25;;;18.90;99.90;;;;;;5045059;28;20200;-33
2023/07/02 04:13:45;;;;;;;43.00;24.38;;;18.90;99.90;;;;;;5043211;28;20606;-33
2023/07/02 04:16:15;;;;;;;46.85;24.77;;;18.90;99.90;;;;;;5042980;28;20307;-33
2023/07/02 04:18:42;;;;;;;42.38;24.10;;;18.90;99.90;;;;;;5043369;28;20196;-33
2023/07/02 04:21:09;;;;;;;37.20;23.83;;;18.90;99.90;;;;;;5043006;28;20224;-33
2023/07/02 04:23:39;;;;;;;44.42;24.25;;;18.90;99.90;;;;;;5044694;28;20462;-33
2023/07/02 04:26:10;;;;;;;39.30;23.83;;;18.90;99.90;;;;;;5045085;28;20669;-33
2023/07/02 04:28:57;;;;;;;41.63;24.77;;;18.90;99.90;;;;;;5044782;28;20200;-33
2023/07/02 04:31:29;;;;;;;41.47;23.65;;;18.90;99.90;;;;;;5043331;28;20207;-25
2023/07/02 04:34:02;;;;;;;44.00;24.20;;;18.90;99.90;;;;;;5043344;28;20553;-25
2023/07/02 04:36:32;;;;;;;45.63;24.45;;;19.00;99.90;;;;;;5044489;28;20220;-25
2023/07/02 04:38:59;;;;;;;43.50;25.08;;;19.00;99.90;;;;;;5042990;28;20301;-25
2023/07/02 04:41:27;;;;;;;45.83;25.95;;;19.00;99.90;;;;;;5042882;28;20211;-25
2023/07/02 04:43:54;;;;;;;47.55;24.58;;;19.00;99.90;;;;;;5042842;28;20208;-25
2023/07/02 04:46:21;;;;;;;43.10;24.85;;;19.00;99.90;;;;;;5044153;28;20204;-25
2023/07/02 04:48:49;;;;;;;44.13;24.85;;;19.00;99.90;;;;;;5044466;28;20298;-25
2023/07/02 04:51:16;;;;;;;44.13;25.00;;;19.10;99.90;;;;;;5042817;28;21039;-25
2023/07/02 04:53:45;;;;;;;45.25;25.05;;;19.10;99.90;;;;;;5042886;28;20215;-25
2023/07/02 04:56:16;;;;;;;43.10;25.50;;;19.20;99.90;;;;;;5044162;28;20753;-25
2023/07/02 04:58:43;;;;;;;48.45;26.83;;;19.20;99.90;;;;;;5042504;28;20200;-25
2023/07/02 05:01:10;;;;;;;44.92;24.63;;;19.20;99.90;;;;;;5044293;28;20278;-25
2023/07/02 05:03:40;;;;;;;43.83;24.40;;;19.20;99.90;;;;;;5048508;28;20224;-24
2023/07/02 05:06:12;;;;;;;48.28;25.38;;;19.30;99.90;;;;;;5048740;28;20212;-25
2023/07/02 05:08:42;;;;;;;47.05;25.63;;;19.30;99.90;;;;;;5048522;28;20196;-25
2023/07/02 05:11:12;;;;;;;47.63;25.67;;;19.30;99.90;;;;;;5048105;28;20200;-25
2023/07/02 05:13:39;;;;;;;49.78;26.00;;;19.40;99.90;;;;;;5046878;28;20638;-25
2023/07/02 05:16:10;;;;;;;44.22;25.58;;;19.50;99.90;;;;;;5046391;28;20596;-25
2023/07/02 05:18:37;;;;;;;47.33;25.95;;;19.50;99.90;;;;;;5048377;28;20637;-25
2023/07/02 05:21:05;;;;;;;48.95;25.23;;;19.60;99.90;;;;;;5048498;28;20210;-25
2023/07/02 05:23:32;;;;;;;47.00;25.90;;;19.60;99.90;;;;;;5048153;28;20243;-25
2023/07/02 05:26:01;;;;;;;47.65;26.08;;;19.60;99.90;;;;;;5046317;28;20219;-25
2023/07/02 05:28:31;;;;;;;48.03;26.73;;;19.70;99.90;;;;;;5046969;28;20216;-25
2023/07/02 05:31:02;;;;;;;46.30;26.45;;;19.70;99.90;;;;;;5048023;28;20204;-25
2023/07/02 05:33:32;;;;;;;48.85;26.63;;;19.70;99.90;;;;;;5048070;28;20200;-25
2023/07/02 05:36:01;;;;;;;51.35;27.55;;;19.80;99.90;;;;;;5046031;28;20690;-25
2023/07/02 05:38:32;;;;;;;41.78;25.48;;;19.80;99.90;;;;;;5046774;28;20207;-26
2023/07/02 05:41:04;;;;;;;53.03;27.02;;;19.90;99.90;;;;;;5048432;28;20741;-25
2023/07/02 05:43:36;;;;;;;47.95;27.02;;;19.90;99.90;;;;;;5048369;28;20991;-26
2023/07/02 05:46:06;;;;;;;52.83;26.77;;;20.00;99.90;;;;;;5046616;28;20726;-25
2023/07/02 05:48:33;;;;;;;46.13;26.27;;;20.00;99.90;;;;;;5047987;28;20204;-25
2023/07/02 05:51:00;;;;;;;46.55;26.33;;;20.00;99.90;;;;;;5046104;28;20200;-25
2023/07/02 05:53:29;;;;;;;41.95;25.92;;;20.00;99.90;;;;;;5046059;28;20208;-26
2023/07/02 05:55:59;;;;;;;45.63;26.83;;;20.00;99.90;;;;;;5045822;28;20282;-25
2023/07/02 05:58:29;;;;;;;48.38;25.85;;;20.00;99.90;;;;;;5046053;28;20319;-25
2023/07/02 06:01:14;;;;;;;45.45;25.70;;;20.10;99.90;;;;;;5046189;28;20206;-25
2023/07/02 06:03:43;;;;;;;44.28;26.27;;;20.10;99.90;;;;;;5047742;28;20675;-25
2023/07/02 06:06:15;;;;;;;39.97;24.88;;;20.10;99.90;;;;;;5045821;28;20208;-25
2023/07/02 06:08:44;;;;;;;42.75;24.27;;;20.10;99.90;;;;;;5047689;28;20261;-25
2023/07/02 06:11:15;;;;;;;41.90;24.55;;;20.10;99.90;;;;;;5047466;28;20533;-25
2023/07/02 06:13:42;;;;;;;41.95;23.50;;;20.20;99.90;;;;;;5045962;28;20232;-25
2023/07/02 06:16:09;;;;;;;43.83;24.50;;;20.20;99.90;;;;;;5045629;28;20230;-25
2023/07/02 06:18:42;;;;;;;43.45;24.38;;;20.20;99.90;;;;;;5046073;28;20300;-25
2023/07/02 06:21:13;;;;;;;44.47;25.42;;;20.30;99.90;;;;;;5047629;28;20539;-25
2023/07/02 06:23:44;;;;;;;42.05;25.00;;;20.30;99.90;;;;;;5046890;28;20637;-25
2023/07/02 06:26:11;;;;;;;45.17;25.15;;;20.30;99.90;;;;;;5045591;28;20208;-25
2023/07/02 06:28:45;;;;;;;41.92;22.70;;;20.40;99.90;;;;;;5061569;28;20196;-25
2023/07/02 06:31:15;;;;;;;36.83;22.35;;;20.40;99.90;;;;;;5047275;28;20208;-25
2023/07/02 06:33:47;;;;;;;47.50;22.95;;;20.50;99.90;;;;;;5046962;28;20208;-25
2023/07/02 06:36:17;;;;;;;44.33;24.30;;;20.50;99.90;;;;;;5045439;28;20262;-25
2023/07/02 06:38:47;;;;;;;39.10;23.90;;;20.50;99.90;;;;;;5046761;28;20212;-25
2023/07/02 06:41:17;;;;;;;40.78;23.63;;;20.50;99.90;;;;;;5061613;28;20660;-25
2023/07/02 06:43:47;;;;;;;44.30;25.25;;;20.50;99.90;;;;;;5046432;28;20209;-25
2023/07/02 06:46:14;;;;;;;39.00;23.67;;;20.60;99.90;;;;;;5046644;28;20205;-25
2023/07/02 06:48:44;;;;;;;41.25;22.58;;;20.60;99.90;;;;;;5044873;28;20227;-25
2023/07/02 06:51:16;;;;;;;42.83;24.65;;;20.70;99.90;;;;;;5044720;28;20201;-24
2023/07/02 06:53:48;;;;;;;41.47;22.77;;;20.70;99.90;;;;;;5046966;28;20202;-25
2023/07/02 06:56:18;;;;;;;37.75;22.83;;;20.70;99.90;;;;;;5046322;28;20226;-25
2023/07/02 06:58:45;;;;;;;36.30;21.52;;;20.80;99.90;;;;;;5046193;28;20192;-25
2023/07/02 07:01:17;;;;;;;40.95;23.40;;;20.80;99.90;;;;;;5046452;28;20601;-25
2023/07/02 07:03:47;;;;;;;36.72;22.65;;;20.90;99.90;;;;;;5044475;28;20310;-25
2023/07/02 07:06:18;;;;;;;38.40;23.55;;;20.90;99.90;;;;;;5046476;28;20204;-25
2023/07/02 07:08:45;;;;;;;35.25;23.23;;;20.90;99.90;;;;;;5044812;28;20200;-25
2023/07/02 07:11:15;;;;;;;39.63;22.45;;;21.00;99.90;;;;;;5044385;28;20215;-25
2023/07/02 07:13:43;;;;;;;33.97;19.42;;;21.00;99.90;;;;;;5045153;28;20204;-25
2023/07/02 07:16:11;;;;;;;38.00;19.45;;;21.10;99.90;;;;;;5028489;28;20611;-25
2023/07/02 07:18:45;;;;;;;35.10;19.17;;;21.10;99.90;;;;;;5046718;28;20207;-25
2023/07/02 07:21:13;;;;;;;35.42;18.95;;;21.10;99.90;;;;;;5046578;28;20298;-25
2023/07/02 07:23:40;;;;;;;26.38;15.95;;;21.10;99.90;;;;;;5044297;28;20824;-25
2023/07/02 07:26:08;;;;;;;30.60;17.30;;;21.20;99.90;;;;;;5044540;28;20239;-33
2023/07/02 07:28:35;;;;;;;29.15;15.90;;;21.20;99.90;;;;;;5045855;28;20258;-33
2023/07/02 07:31:02;;;;;;;30.05;16.40;;;21.20;99.90;;;;;;5045707;28;20201;-33
2023/07/02 07:33:34;;;;;;;26.75;15.32;;;21.20;99.90;;;;;;5060455;28;20716;-33
2023/07/02 07:36:02;;;;;;;28.42;14.02;;;21.10;99.90;;;;;;5043830;28;20204;-33
2023/07/02 07:38:34;;;;;;;26.55;14.73;;;21.10;99.90;;;;;;5044191;28;20243;-33
2023/07/02 07:41:06;;;;;;;28.38;15.45;;;21.10;99.90;;;;;;5045312;28;20212;-33
2023/07/02 07:43:38;;;;;;;30.10;15.15;;;21.10;99.90;;;;;;5043939;28;20697;-33
2023/07/02 07:46:08;;;;;;;24.70;13.85;;;21.10;99.90;;;;;;5044398;28;20760;-33
2023/07/02 07:48:38;;;;;;;24.67;14.55;;;21.10;99.90;;;;;;5044026;28;20210;-33
2023/07/02 07:51:07;;;;;;;22.45;13.48;;;21.20;99.90;;;;;;5044031;28;20319;-33
2023/07/02 07:53:38;;;;;;;27.63;13.98;;;21.20;99.90;;;;;;5060109;28;20299;-33
2023/07/02 07:56:06;;;;;;;22.80;13.65;;;21.20;99.90;;;;;;5043827;28;20215;-33
2023/07/02 07:58:33;;;;;;;25.45;13.65;;;21.20;99.90;;;;;;5045629;28;20196;-33
2023/07/02 08:01:00;;;;;;;22.60;12.60;;;21.30;99.90;;;;;;5043895;28;20192;-33
2023/07/02 08:03:32;;;;;;;17.90;11.70;;;21.30;99.90;;;;;;5045615;28;20208;-33
2023/07/02 08:06:02;;;;;;;20.92;11.27;;;21.40;99.90;;;;;;5043543;28;20804;-33
2023/07/02 08:08:34;;;;;;;14.60;10.20;;;21.40;99.90;;;;;;5045219;28;20310;-33
2023/07/02 08:11:02;;;;;;;17.95;10.20;;;21.40;99.90;;;;;;5043558;28;20922;-33
2023/07/02 08:13:31;;;;;;;20.23;10.02;;;21.40;99.90;;;;;;5045293;28;20200;-33
2023/07/02 08:16:01;;;;;;;18.85;9.45;;;21.40;99.90;;;;;;5045091;28;20682;-33
2023/07/02 08:18:28;;;;;;;15.93;9.32;;;21.40;99.90;;;;;;5044677;28;20231;-33
2023/07/02 08:20:58;;;;;;;16.90;8.65;;;21.40;99.90;;;;;;5042904;28;20204;-33
2023/07/02 08:23:27;;;;;;;18.33;9.68;;;21.40;99.90;;;;;;5044590;28;20618;-33
2023/07/02 08:26:00;;;;;;;20.00;9.25;;;21.40;99.90;;;;;;5044806;28;20247;-33
2023/07/02 08:28:32;;;;;;;18.80;9.02;;;21.40;99.90;;;;;;5044895;28;20303;-33
2023/07/02 08:31:01;;;;;;;17.35;10.07;;;21.50;99.90;;;;;;5044982;28;20674;-24
2023/07/02 08:33:36;;;;;;;21.38;9.52;;;21.50;99.90;;;;;;5043337;28;20682;-25
2023/07/02 08:36:08;;;;;;;19.27;9.13;;;21.50;99.90;;;;;;5044159;28;20228;-33
2023/07/02 08:38:39;;;;;;;16.42;8.98;;;21.60;99.90;;;;;;5042906;28;20297;-33
2023/07/02 08:41:11;;;;;;;14.70;8.85;;;21.60;99.90;;;;;;5042870;28;20200;-33
2023/07/02 08:43:41;;;;;;;16.23;9.27;;;21.70;99.90;;;;;;5043140;28;20196;-33
2023/07/02 08:46:09;;;;;;;17.17;8.95;;;21.70;99.90;;;;;;5043012;28;20678;-33
2023/07/02 08:48:42;;;;;;;16.58;8.77;;;21.80;99.90;;;;;;5044411;28;20207;-33
2023/07/02 08:51:11;;;;;;;17.50;9.52;;;21.80;99.90;;;;;;5044421;28;20206;-33
2023/07/02 08:53:41;;;;;;;15.52;9.77;;;21.80;99.90;;;;;;5044306;28;20216;-33
2023/07/02 08:56:08;;;;;;;19.75;9.95;;;21.90;99.90;;;;;;5042475;28;20203;-33
2023/07/02 08:58:38;;;;;;;17.83;10.38;;;21.90;99.90;;;;;;5044304;28;20220;-33
2023/07/02 09:01:10;;;;;;;18.33;9.88;;;21.90;99.90;;;;;;5044145;28;20200;-33
2023/07/02 09:03:43;;;;;;;21.67;10.27;;;21.90;99.90;;;;;;5044280;28;20204;-33
2023/07/02 09:06:11;;;;;;;19.92;9.90;;;21.90;99.90;;;;;;5044303;28;20666;-33
2023/07/02 09:08:43;;;;;;;18.23;10.13;;;21.90;99.90;;;;;;5042870;28;20200;-33
2023/07/02 09:11:18;;;;;;;17.58;10.05;;;21.90;99.90;;;;;;5044344;28;20700;-33
2023/07/02 09:13:53;;;;;;;20.33;10.55;;;21.90;99.90;;;;;;5042465;28;20195;-33
2023/07/02 09:16:26;;;;;;;18.23;10.73;;;21.90;99.90;;;;;;5044037;28;20258;-33
2023/07/02 09:19:08;;;;;;;20.35;10.75;;;21.80;99.90;;;;;;5043919;28;20498;-33
2023/07/02 09:21:45;;;;;;;20.55;10.48;;;21.70;99.90;;;;;;5042229;28;20200;-33
2023/07/02 09:24:17;;;;;;;17.13;10.85;;;21.60;99.90;;;;;;5042477;28;20727;-33
2023/07/02 09:26:55;;;;;;;19.70;10.40;;;21.60;99.90;;;;;;5042307;28;20223;-33
2023/07/02 09:29:28;;;;;;;18.20;10.38;;;21.70;99.90;;;;;;5042166;28;20200;-33
2023/07/02 09:32:00;;;;;;;20.73;10.23;;;21.60;99.90;;;;;;5043809;28;20193;-33
2023/07/02 09:34:32;;;;;;;18.02;11.10;;;21.70;99.90;;;;;;5044583;28;20553;-33
2023/07/02 09:37:04;;;;;;;21.10;10.95;;;21.70;99.90;;;;;;5044059;28;20768;-33
2023/07/02 09:39:39;;;;;;;21.70;11.52;;;21.70;99.90;;;;;;5043865;28;20746;-33
2023/07/02 09:42:09;;;;;;;19.55;10.73;;;21.70;99.90;;;;;;5043969;28;20578;-33
2023/07/02 09:44:40;;;;;;;23.05;11.65;;;21.70;99.90;;;;;;5043952;28;20682;-33
2023/07/02 09:47:10;;;;;;;20.52;10.82;;;21.70;99.90;;;;;;5042172;28;20208;-33
2023/07/02 09:49:43;;;;;;;25.58;14.18;;;21.80;99.90;;;;;;5047410;28;20239;-33
2023/07/02 09:52:13;;;;;;;23.45;12.23;;;21.90;99.90;;;;;;5047469;28;20211;-33
2023/07/02 09:54:41;;;;;;;23.13;12.95;;;21.90;99.90;;;;;;5047623;28;20703;-33
2023/07/02 09:57:09;;;;;;;26.50;13.73;;;22.00;99.90;;;;;;5047458;28;20706;-33
2023/07/02 09:59:41;;;;;;;24.83;14.05;;;22.00;99.90;;;;;;5047697;28;20254;-33
2023/07/02 10:02:12;;;;;;;23.80;12.13;;;22.00;99.90;;;;;;5046613;28;20204;-33
2023/07/02 10:04:44;;;;;;;20.45;12.80;;;22.10;99.90;;;;;;5046005;28;20197;-33
2023/07/02 10:07:13;;;;;;;20.70;12.32;;;22.10;99.90;;;;;;5045891;28;20250;-33
2023/07/02 10:09:46;;;;;;;24.88;11.68;;;22.10;99.90;;;;;;5045730;28;20223;-33
2023/07/02 10:12:23;;;;;;;24.83;12.30;;;22.10;99.90;;;;;;5047345;28;20210;-33
2023/07/02 10:14:52;;;;;;;22.33;12.30;;;22.10;99.90;;;;;;5047066;28;20216;-33
2023/07/02 10:17:28;;;;;;;21.77;12.38;;;22.10;99.90;;;;;;5047144;28;20216;-33
2023/07/02 10:20:00;;;;;;;22.52;11.95;;;22.20;99.90;;;;;;5047368;28;20608;-34
2023/07/02 10:22:41;;;;;;;24.83;12.43;;;22.20;99.90;;;;;;5045234;28;20232;-33
2023/07/02 10:25:09;;;;;;;23.95;12.55;;;22.20;99.90;;;;;;5047204;28;20215;-33
2023/07/02 10:27:40;;;;;;;21.42;12.40;;;22.20;99.90;;;;;;5047037;28;20200;-34
2023/07/02 10:30:13;;;;;;;24.67;12.23;;;22.20;99.90;;;;;;5046834;28;20200;-33
2023/07/02 10:32:40;;;;;;;24.40;11.75;;;22.20;99.90;;;;;;5045380;28;20208;-33
2023/07/02 10:35:19;;;;;;;22.48;11.80;;;22.20;99.90;;;;;;5045536;28;20657;-33
2023/07/02 10:37:49;;;;;;;23.33;12.10;;;22.10;99.90;;;;;;5046781;28;20227;-33
2023/07/02 10:40:16;;;;;;;22.60;12.00;;;22.10;99.90;;;;;;5046521;28;20692;-33
2023/07/02 10:42:47;;;;;;;21.92;12.18;;;22.10;99.90;;;;;;5044914;28;20342;-33
2023/07/02 10:45:15;;;;;;;20.00;11.60;;;22.10;99.90;;;;;;5046886;28;20694;-34
2023/07/02 10:47:46;;;;;;;22.30;12.68;;;22.10;99.90;;;;;;5046644;28;20291;-33
2023/07/02 10:50:21;;;;;;;23.30;11.90;;;22.10;99.90;;;;;;5044887;28;20204;-33
2023/07/02 10:52:52;;;;;;;22.40;11.68;;;22.20;99.90;;;;;;5044652;28;20204;-33
2023/07/02 10:55:28;;;;;;;22.15;12.70;;;22.20;99.90;;;;;;5044665;28;20204;-33
2023/07/02 10:58:04;;;;;;;19.35;11.63;;;22.30;99.90;;;;;;5046174;28;20728;-33
2023/07/02 11:00:46;;;;;;;22.52;12.50;;;22.30;99.90;;;;;;5045680;28;20315;-33
2023/07/02 11:03:30;;;;;;;21.27;11.70;;;22.40;99.90;;;;;;5046241;28;20700;-33
2023/07/02 11:05:57;;;;;;;22.73;12.00;;;22.40;99.90;;;;;;5045968;28;20588;-33
2023/07/02 11:08:37;;;;;;;22.95;12.73;;;22.40;99.90;;;;;;5044913;28;20204;-33
2023/07/02 11:11:08;;;;;;;23.50;11.50;;;22.30;99.90;;;;;;5044552;28;20526;-33
2023/07/02 11:13:46;;;;;;;23.83;12.80;;;22.30;99.90;;;;;;5044595;28;20258;-33
2023/07/02 11:16:28;;;;;;;24.10;12.68;;;22.30;99.90;;;;;;5044350;28;20227;-33
2023/07/02 11:19:08;;;;;;;17.83;11.68;;;22.30;99.90;;;;;;5044297;28;20216;-34
2023/07/02 11:21:49;;;;;;;19.70;11.88;;;22.30;99.90;;;;;;5046028;28;20295;-33
2023/07/02 11:24:27;;;;;;;19.10;10.98;;;22.20;99.90;;;;;;5045967;28;20200;-33
2023/07/02 11:26:55;;;;;;;21.65;11.75;;;22.30;99.90;;;;;;5046056;28;20207;-33
2023/07/02 11:29:22;;;;;;;22.48;12.18;;;22.30;99.90;;;;;;5028035;28;20674;-33
2023/07/02 11:31:50;;;;;;;20.85;11.52;;;22.40;99.90;;;;;;5044341;28;20196;-34
2023/07/02 11:34:18;;;;;;;22.05;11.38;;;22.50;99.90;;;;;;5045693;28;20197;-33
2023/07/02 11:36:52;;;;;;;23.40;12.20;;;22.60;99.90;;;;;;5045579;28;20207;-33
2023/07/02 11:39:21;;;;;;;20.55;11.63;;;22.60;99.90;;;;;;5045304;28;20261;-33
2023/07/02 11:41:55;;;;;;;21.95;11.93;;;22.70;99.90;;;;;;5044146;28;20231;-33
2023/07/02 11:44:22;;;;;;;20.75;11.95;;;22.70;99.90;;;;;;5046154;28;20692;-34
2023/07/02 11:46:56;;;;;;;19.65;11.25;;;22.80;99.90;;;;;;5045315;28;20193;-33
2023/07/02 11:49:24;;;;;;;20.48;11.75;;;22.80;99.90;;;;;;5060847;28;20366;-33
2023/07/02 11:51:54;;;;;;;19.85;10.93;;;22.80;99.90;;;;;;5045236;28;20317;-33
2023/07/02 11:54:23;;;;;;;20.50;10.73;;;22.80;99.90;;;;;;5045721;28;20200;-33
2023/07/02 11:56:55;;;;;;;18.00;10.60;;;22.90;99.90;;;;;;5045460;28;20224;-33
2023/07/02 11:59:22;;;;;;;18.92;11.20;;;22.80;99.90;;;;;;5044780;28;20228;-33
2023/07/02 12:01:53;;;;;;;18.92;10.32;;;22.80;99.90;;;;;;5045113;28;20627;-33
2023/07/02 12:04:20;;;;;;;19.05;10.70;;;22.80;99.90;;;;;;5043443;28;20235;-33
2023/07/02 12:06:50;;;;;;;18.20;11.05;;;22.90;99.90;;;;;;5043221;28;20192;-33
2023/07/02 12:09:21;;;;;;;16.50;9.93;;;22.90;99.90;;;;;;5043320;28;20625;-33
2023/07/02 12:11:51;;;;;;;19.20;10.18;;;22.90;99.90;;;;;;5059821;28;20204;-33
2023/07/02 12:14:21;;;;;;;19.67;10.40;;;23.00;99.90;;;;;;5027122;28;20204;-33
2023/07/02 12:16:48;;;;;;;20.70;11.02;;;23.10;99.90;;;;;;5059591;28;20927;-34
2023/07/02 12:19:20;;;;;;;23.55;10.38;;;23.10;99.90;;;;;;5042862;28;20220;-33
2023/07/02 12:21:52;;;;;;;16.10;9.57;;;23.20;99.90;;;;;;5044843;28;20297;-33
2023/07/02 12:24:19;;;;;;;20.20;11.02;;;23.20;99.90;;;;;;5043463;28;20196;-33
2023/07/02 12:26:49;;;;;;;17.02;9.88;;;23.30;99.90;;;;;;5044498;28;20200;-34
2023/07/02 12:29:18;;;;;;;19.45;10.48;;;23.30;99.90;;;;;;5044980;28;20250;-33
2023/07/02 12:31:46;;;;;;;20.60;10.45;;;23.30;99.90;;;;;;5044641;28;20200;-33
2023/07/02 12:34:13;;;;;;;20.17;10.88;;;23.30;99.90;;;;;;5042784;28;20204;-33
2023/07/02 12:36:43;;;;;;;19.92;10.02;;;23.40;99.90;;;;;;5044178;28;20212;-33
2023/07/02 12:39:10;;;;;;;17.73;10.18;;;23.50;99.90;;;;;;5044387;28;20595;-33
2023/07/02 12:41:39;;;;;;;21.63;10.23;;;23.50;99.90;;;;;;5044866;28;20204;-33
2023/07/02 12:44:07;;;;;;;16.27;9.40;;;23.50;99.90;;;;;;5044269;28;20196;-33